Barstow, Texas
Current Conditions -  °F | °C
As of 11:15 AM on Sunday 21 Dec 2014 (Local Time) from KPEQ Reporting Station
Clear Clear  
Wind Chill: 61°   Ceiling: Unl
Heat Index: 61°   Visibility: 10mi
Dew Point: 30°   Wind: 20mph
Humidity: 31%   Direction: 250°WSW
Pressure: 29.99"   Gusts: NA
Location:  31.46°N, 103.39°W
Report Text: KPEQ 211715Z AUTO 25017KT 10SM CLR 16/M01 A2999 RMK AO2 T01601011
Loading
Personal Weather Stations






























Interactive Weather Map New forecast layout! Learn more

10-Day Weather Forecast

Advertisements
Track Severe Weather on mobile